createdAt,value
2022-08-22T00:02:48.148Z,98361.00
2022-08-22T00:03:17.731Z,98330.00
2022-08-22T00:06:22.340Z,98342.00
2022-08-22T00:09:23.353Z,98337.00
2022-08-22T00:12:53.427Z,98336.00
2022-08-22T00:15:52.741Z,98329.00
2022-08-22T00:19:22.387Z,98327.00
2022-08-22T00:22:42.743Z,98331.00
2022-08-22T00:26:03.637Z,98326.00
2022-08-22T00:29:11.692Z,98324.00
2022-08-22T00:32:20.712Z,98324.00
2022-08-22T00:35:41.681Z,98318.00
2022-08-22T00:38:42.857Z,98325.00
2022-08-22T00:42:01.088Z,98324.00
2022-08-22T00:45:25.854Z,98321.00
2022-08-22T00:48:51.648Z,98325.00
2022-08-22T00:52:00.871Z,98321.00
2022-08-22T00:55:28.050Z,98326.00
2022-08-22T00:58:37.378Z,98327.00
2022-08-22T01:01:44.492Z,98332.00
2022-08-22T01:05:09.899Z,98331.00
2022-08-22T01:08:50.167Z,98331.00
2022-08-22T01:12:05.178Z,98333.00
2022-08-22T01:15:14.192Z,98331.00
2022-08-22T01:18:41.251Z,98327.00
2022-08-22T01:22:10.433Z,98328.00
2022-08-22T01:25:50.965Z,98332.00
2022-08-22T01:29:28.198Z,98335.00
2022-08-22T01:33:02.282Z,98334.00
2022-08-22T01:36:42.207Z,98336.00
2022-08-22T01:40:29.807Z,98335.00
2022-08-22T01:43:59.116Z,98339.00
2022-08-22T01:47:13.548Z,98345.00
2022-08-22T01:50:37.014Z,98342.00
2022-08-22T01:54:03.432Z,98339.00
2022-08-22T01:56:51.012Z,98334.00
2022-08-22T01:59:53.452Z,98341.00
2022-08-22T02:03:01.601Z,98340.00
2022-08-22T02:06:03.677Z,98329.00
2022-08-22T02:09:11.112Z,98334.00
2022-08-22T02:12:22.397Z,98335.00
2022-08-22T02:15:41.403Z,98332.00
2022-08-22T02:19:14.657Z,98340.00
2022-08-22T02:22:53.747Z,98335.00
2022-08-22T02:25:56.482Z,98343.00
2022-08-22T02:29:06.692Z,98336.00
2022-08-22T02:32:18.976Z,98333.00
2022-08-22T02:35:54.774Z,98338.00
2022-08-22T02:39:24.319Z,98339.00
2022-08-22T02:42:22.664Z,98334.00
2022-08-22T02:45:25.215Z,98330.00
2022-08-22T02:48:36.542Z,98332.00
2022-08-22T02:51:46.459Z,98335.00
2022-08-22T02:54:46.032Z,98326.00
2022-08-22T02:57:53.459Z,98326.00
2022-08-22T03:00:59.698Z,98327.00
2022-08-22T03:03:48.577Z,98323.00
2022-08-22T03:06:46.549Z,98321.00
2022-08-22T03:10:15.702Z,98322.00
2022-08-22T03:13:25.077Z,98318.00
2022-08-22T03:16:49.992Z,98319.00
2022-08-22T03:20:04.473Z,98313.00
2022-08-22T03:23:07.462Z,98316.00
2022-08-22T03:26:26.112Z,98317.00
2022-08-22T03:29:24.318Z,98316.00
2022-08-22T03:32:19.900Z,98314.00
2022-08-22T03:35:29.743Z,98306.00
2022-08-22T03:38:35.021Z,98312.00
2022-08-22T03:42:19.027Z,98314.00
2022-08-22T03:45:30.371Z,98308.00
2022-08-22T03:48:49.262Z,98322.00
2022-08-22T03:52:58.412Z,98320.00
2022-08-22T03:56:41.942Z,98311.00
2022-08-22T04:00:00.082Z,98317.00
2022-08-22T04:03:41.677Z,98330.00
2022-08-22T04:07:05.901Z,98335.00
2022-08-22T04:11:02.591Z,98331.00
2022-08-22T04:14:24.277Z,98329.00
2022-08-22T04:17:51.887Z,98331.00
2022-08-22T04:21:06.451Z,98327.00
2022-08-22T04:24:21.161Z,98334.00
2022-08-22T04:27:26.548Z,98330.00
2022-08-22T04:30:45.652Z,98338.00
2022-08-22T04:33:54.638Z,98328.00
2022-08-22T04:36:54.867Z,98338.00
2022-08-22T04:40:12.252Z,98334.00
2022-08-22T04:43:12.372Z,98350.00
2022-08-22T04:46:52.933Z,98344.00
2022-08-22T04:50:05.638Z,98340.00
2022-08-22T04:53:20.692Z,98344.00
2022-08-22T04:56:46.539Z,98342.00
2022-08-22T04:59:35.989Z,98340.00
2022-08-22T05:02:27.962Z,98349.00
2022-08-22T05:05:34.792Z,98348.00
2022-08-22T05:08:30.449Z,98356.00
2022-08-22T05:11:23.457Z,98352.00
2022-08-22T05:14:25.112Z,98356.00
2022-08-22T05:17:22.972Z,98360.00
2022-08-22T05:20:17.838Z,98360.00
2022-08-22T05:23:34.992Z,98356.00
2022-08-22T05:26:22.872Z,98360.00
2022-08-22T05:29:15.947Z,98362.00
2022-08-22T05:32:11.111Z,98365.00
2022-08-22T05:35:02.340Z,98353.00
2022-08-22T05:37:55.504Z,98360.00
2022-08-22T05:40:49.692Z,98359.00
2022-08-22T05:43:44.168Z,98361.00
2022-08-22T05:46:43.008Z,98361.00
2022-08-22T05:50:01.941Z,98360.00
2022-08-22T05:53:14.495Z,98362.00
2022-08-22T05:56:12.432Z,98366.00
2022-08-22T05:59:23.187Z,98376.00
2022-08-22T06:02:23.892Z,98375.00
2022-08-22T06:05:12.596Z,98377.00
2022-08-22T06:08:38.248Z,98373.00
2022-08-22T06:11:40.173Z,98384.00
2022-08-22T06:14:53.756Z,98384.00
2022-08-22T06:18:01.346Z,98373.00
2022-08-22T06:21:46.373Z,98376.00
2022-08-22T06:24:38.404Z,98381.00
2022-08-22T06:27:31.298Z,98384.00
2022-08-22T06:30:21.025Z,98380.00
2022-08-22T06:33:21.672Z,98382.00
2022-08-22T06:36:31.741Z,98377.00
2022-08-22T06:39:28.082Z,98380.00
2022-08-22T06:42:24.447Z,98386.00
2022-08-22T06:45:44.697Z,98392.00
2022-08-22T06:48:35.297Z,98385.00
2022-08-22T06:51:28.067Z,98385.00
2022-08-22T06:54:24.847Z,98388.00
2022-08-22T06:57:37.511Z,98388.00
2022-08-22T07:00:27.719Z,98393.00
2022-08-22T07:03:40.233Z,98392.00
2022-08-22T07:06:35.378Z,98394.00
2022-08-22T07:09:37.188Z,98391.00
2022-08-22T07:12:36.917Z,98390.00
2022-08-22T07:15:39.952Z,98389.00
2022-08-22T07:18:30.167Z,98392.00
2022-08-22T07:21:41.682Z,98391.00
2022-08-22T07:24:33.122Z,98384.00
2022-08-22T07:27:54.476Z,98380.00
2022-08-22T07:31:29.087Z,98379.00
2022-08-22T07:34:42.897Z,98372.00
2022-08-22T07:37:50.278Z,98374.00
2022-08-22T07:41:05.142Z,98376.00
2022-08-22T07:43:57.698Z,98377.00
2022-08-22T07:47:01.008Z,98384.00
2022-08-22T07:50:04.208Z,98374.00
2022-08-22T07:52:57.347Z,98379.00
2022-08-22T07:55:49.630Z,98380.00
2022-08-22T07:58:43.117Z,98379.00
2022-08-22T08:01:31.520Z,98373.00
2022-08-22T08:04:29.088Z,98377.00
2022-08-22T08:07:22.088Z,98374.00
2022-08-22T08:10:20.252Z,98384.00
2022-08-22T08:13:19.438Z,98379.00
2022-08-22T08:16:16.107Z,98382.00
2022-08-22T08:19:03.807Z,98382.00
2022-08-22T08:21:56.767Z,98379.00
2022-08-22T08:24:46.437Z,98382.00
2022-08-22T08:27:57.797Z,98381.00
2022-08-22T08:30:56.187Z,98372.00
2022-08-22T08:33:50.448Z,98376.00
2022-08-22T08:37:09.302Z,98379.00
2022-08-22T08:40:09.054Z,98382.00
2022-08-22T08:43:28.367Z,98379.00
2022-08-22T08:46:28.232Z,98379.00
2022-08-22T08:49:21.063Z,98376.00
2022-08-22T08:52:20.531Z,98381.00
2022-08-22T08:55:24.871Z,98384.00
2022-08-22T08:58:56.216Z,98382.00
2022-08-22T09:02:23.731Z,98383.00
2022-08-22T09:05:45.432Z,98386.00
2022-08-22T09:09:30.577Z,98383.00
2022-08-22T09:12:32.477Z,98386.00
2022-08-22T09:15:59.687Z,98388.00
2022-08-22T09:19:30.571Z,98394.00
2022-08-22T09:22:50.667Z,98390.00
2022-08-22T09:26:02.377Z,98389.00
2022-08-22T09:29:00.466Z,98388.00
2022-08-22T09:32:28.693Z,98380.00
2022-08-22T09:36:03.066Z,98382.00
2022-08-22T09:39:29.887Z,98385.00
2022-08-22T09:42:31.666Z,98383.00
2022-08-22T09:45:42.917Z,98389.00
2022-08-22T09:49:12.771Z,98391.00
2022-08-22T09:52:33.933Z,98385.00
2022-08-22T09:55:59.885Z,98387.00
2022-08-22T09:59:33.620Z,98389.00
2022-08-22T10:02:50.213Z,98375.00
2022-08-22T10:06:03.841Z,98376.00
2022-08-22T10:09:26.510Z,98378.00
2022-08-22T10:12:36.540Z,98380.00
2022-08-22T10:15:41.583Z,98382.00
2022-08-22T10:18:53.812Z,98388.00
2022-08-22T10:22:17.611Z,98376.00
2022-08-22T10:25:36.498Z,98378.00
2022-08-22T10:28:56.591Z,98384.00
2022-08-22T10:31:59.489Z,98381.00
2022-08-22T10:34:55.966Z,98382.00
2022-08-22T10:38:06.036Z,98384.00
2022-08-22T10:41:37.599Z,98387.00
2022-08-22T10:45:02.902Z,98387.00
2022-08-22T10:47:59.734Z,98386.00
2022-08-22T10:51:20.812Z,98388.00
2022-08-22T10:54:36.047Z,98370.00
2022-08-22T10:57:37.449Z,98384.00
2022-08-22T11:00:58.548Z,98377.00
2022-08-22T11:04:04.394Z,98385.00
2022-08-22T11:07:38.287Z,98383.00
2022-08-22T11:11:03.557Z,98380.00
2022-08-22T11:14:06.997Z,98374.00
2022-08-22T11:17:31.086Z,98376.00
2022-08-22T11:21:01.047Z,98381.00
2022-08-22T11:24:34.814Z,98388.00
2022-08-22T11:28:01.387Z,98379.00
2022-08-22T11:31:03.999Z,98389.00
2022-08-22T11:34:29.377Z,98388.00
2022-08-22T11:38:10.973Z,98395.00
2022-08-22T11:41:12.757Z,98399.00
2022-08-22T11:44:20.907Z,98393.00
2022-08-22T11:47:14.913Z,98403.00
2022-08-22T11:50:32.976Z,98405.00
2022-08-22T11:53:45.896Z,98407.00
2022-08-22T11:56:42.332Z,98408.00
2022-08-22T12:00:23.632Z,98415.00
2022-08-22T12:03:39.280Z,98417.00
2022-08-22T12:06:57.315Z,98419.00
2022-08-22T12:09:56.142Z,98422.00
2022-08-22T12:13:05.157Z,98424.00
2022-08-22T12:16:15.437Z,98425.00
2022-08-22T12:19:24.273Z,98420.00
2022-08-22T12:22:31.158Z,98419.00
2022-08-22T12:25:52.405Z,98416.00
2022-08-22T12:29:18.728Z,98421.00
2022-08-22T12:32:43.688Z,98424.00
2022-08-22T12:36:00.638Z,98420.00
2022-08-22T12:39:26.327Z,98415.00
2022-08-22T12:42:46.146Z,98414.00
2022-08-22T12:45:36.718Z,98412.00
2022-08-22T12:49:12.392Z,98416.00
2022-08-22T12:52:18.432Z,98419.00
2022-08-22T12:55:47.458Z,98422.00
2022-08-22T12:59:15.734Z,98430.00
2022-08-22T13:02:25.374Z,98420.00
2022-08-22T13:05:21.332Z,98427.00
2022-08-22T13:08:41.240Z,98427.00
2022-08-22T13:11:38.108Z,98419.00
2022-08-22T13:14:29.934Z,98426.00
2022-08-22T13:17:25.190Z,98424.00
2022-08-22T13:20:37.690Z,98429.00
2022-08-22T13:23:43.272Z,98438.00
2022-08-22T13:26:37.697Z,98430.00
2022-08-22T13:29:53.712Z,98444.00
2022-08-22T13:32:56.742Z,98443.00
2022-08-22T13:35:56.608Z,98436.00
2022-08-22T13:39:07.497Z,98457.00
2022-08-22T13:42:03.803Z,98453.00
2022-08-22T13:45:12.572Z,98458.00
2022-08-22T13:48:11.410Z,98462.00
2022-08-22T13:51:21.422Z,98464.00
2022-08-22T13:54:10.867Z,98461.00
2022-08-22T13:57:08.242Z,98464.00
2022-08-22T14:00:28.577Z,98462.00
2022-08-22T14:03:25.367Z,98470.00
2022-08-22T14:06:53.928Z,98467.00
2022-08-22T14:10:02.490Z,98450.00
2022-08-22T14:13:36.713Z,98453.00
2022-08-22T14:16:40.037Z,98455.00
2022-08-22T14:19:59.130Z,98466.00
2022-08-22T14:22:58.965Z,98464.00
2022-08-22T14:25:50.082Z,98466.00
2022-08-22T14:28:38.459Z,98463.00
2022-08-22T14:31:27.446Z,98468.00
2022-08-22T14:34:16.650Z,98469.00
2022-08-22T14:37:15.490Z,98470.00
2022-08-22T14:40:28.395Z,98464.00
2022-08-22T14:43:40.444Z,98461.00
2022-08-22T14:46:57.472Z,98465.00
2022-08-22T14:50:01.438Z,98463.00
2022-08-22T14:53:13.412Z,98465.00
2022-08-22T14:56:19.213Z,98461.00
2022-08-22T14:59:14.875Z,98450.00
2022-08-22T15:02:32.817Z,98452.00
2022-08-22T15:05:23.067Z,98449.00
2022-08-22T15:08:12.806Z,98445.00
2022-08-22T15:11:22.108Z,98444.00
2022-08-22T15:14:26.009Z,98439.00
2022-08-22T15:17:46.017Z,98445.00
2022-08-22T15:20:49.113Z,98444.00
2022-08-22T15:23:47.012Z,98438.00
2022-08-22T15:26:41.852Z,98440.00
2022-08-22T15:29:34.657Z,98435.00
2022-08-22T15:32:31.701Z,98439.00
2022-08-22T15:35:32.121Z,98430.00
2022-08-22T15:38:36.337Z,98430.00
2022-08-22T15:41:35.928Z,98427.00
2022-08-22T15:44:33.563Z,98432.00
2022-08-22T15:47:39.682Z,98431.00
2022-08-22T15:50:54.641Z,98434.00
2022-08-22T15:53:45.186Z,98431.00
2022-08-22T15:56:41.755Z,98429.00
2022-08-22T15:59:54.183Z,98429.00
2022-08-22T16:03:10.246Z,98433.00
2022-08-22T16:06:07.438Z,98432.00
2022-08-22T16:08:55.881Z,98426.00
2022-08-22T16:11:52.777Z,98421.00
2022-08-22T16:14:46.386Z,98418.00
2022-08-22T16:17:44.822Z,98416.00
2022-08-22T16:20:32.821Z,98420.00
2022-08-22T16:23:20.736Z,98425.00
2022-08-22T16:26:11.416Z,98427.00
2022-08-22T16:29:42.724Z,98421.00
2022-08-22T16:32:30.466Z,98428.00
2022-08-22T16:36:15.381Z,98423.00
2022-08-22T16:39:24.362Z,98421.00
2022-08-22T16:42:15.637Z,98430.00
2022-08-22T16:45:04.609Z,98427.00
2022-08-22T16:47:58.550Z,98427.00
2022-08-22T16:51:10.617Z,98435.00
2022-08-22T16:54:47.555Z,98435.00
2022-08-22T16:58:14.529Z,98432.00
2022-08-22T17:01:48.173Z,98438.00
2022-08-22T17:05:30.167Z,98443.00
2022-08-22T17:08:37.261Z,98445.00
2022-08-22T17:11:43.996Z,98447.00
2022-08-22T17:15:35.821Z,98445.00
2022-08-22T17:18:56.736Z,98440.00
2022-08-22T17:22:35.350Z,98440.00
2022-08-22T17:25:47.841Z,98447.00
2022-08-22T17:29:03.205Z,98453.00
2022-08-22T17:32:37.576Z,98453.00
2022-08-22T17:36:05.301Z,98460.00
2022-08-22T17:39:22.971Z,98456.00
2022-08-22T17:42:35.341Z,98459.00
2022-08-22T17:46:14.600Z,98458.00
2022-08-22T17:49:45.496Z,98470.00
2022-08-22T17:52:45.681Z,98468.00
2022-08-22T17:55:56.771Z,98475.00
2022-08-22T17:59:23.876Z,98470.00
2022-08-22T18:02:26.995Z,98479.00
2022-08-22T18:05:31.599Z,98477.00
2022-08-22T18:09:13.167Z,98485.00
2022-08-22T18:12:08.056Z,98476.00
2022-08-22T18:15:09.552Z,98479.00
2022-08-22T18:18:37.651Z,98478.00
2022-08-22T18:21:28.076Z,98487.00
2022-08-22T18:24:33.227Z,98489.00
2022-08-22T18:27:39.098Z,98492.00
2022-08-22T18:30:49.291Z,98494.00
2022-08-22T18:33:54.712Z,98499.00
2022-08-22T18:36:59.666Z,98497.00
2022-08-22T18:40:13.313Z,98502.00
2022-08-22T18:43:26.131Z,98495.00
2022-08-22T18:46:38.547Z,98497.00
2022-08-22T18:49:26.039Z,98496.00
2022-08-22T18:52:21.327Z,98503.00
2022-08-22T18:55:22.210Z,98505.00
2022-08-22T18:58:41.331Z,98505.00
2022-08-22T19:01:55.624Z,98508.00
2022-08-22T19:05:51.657Z,98519.00
2022-08-22T19:09:16.853Z,98515.00
2022-08-22T19:12:54.263Z,98514.00
2022-08-22T19:16:44.082Z,98515.00
2022-08-22T19:20:19.688Z,98527.00
2022-08-22T19:23:36.137Z,98521.00
2022-08-22T19:26:29.927Z,98515.00
2022-08-22T19:29:18.655Z,98517.00
2022-08-22T19:32:12.775Z,98522.00
2022-08-22T19:35:23.808Z,98525.00
2022-08-22T19:38:12.764Z,98531.00
2022-08-22T19:41:00.882Z,98534.00
2022-08-22T19:43:48.404Z,98531.00
2022-08-22T19:46:40.503Z,98531.00
2022-08-22T19:49:38.175Z,98534.00
2022-08-22T19:52:45.253Z,98522.00
2022-08-22T19:55:38.829Z,98531.00
2022-08-22T19:58:51.887Z,98531.00
2022-08-22T20:02:05.795Z,98527.00
2022-08-22T20:05:06.111Z,98522.00
2022-08-22T20:08:25.659Z,98518.00
2022-08-22T20:11:37.877Z,98527.00
2022-08-22T20:14:40.008Z,98525.00
2022-08-22T20:17:27.428Z,98521.00
2022-08-22T20:20:35.368Z,98519.00
2022-08-22T20:23:30.885Z,98521.00
2022-08-22T20:26:18.534Z,98514.00
2022-08-22T20:29:08.122Z,98502.00
2022-08-22T20:31:58.879Z,98512.00
2022-08-22T20:34:49.755Z,98506.00
2022-08-22T20:38:05.925Z,98501.00
2022-08-22T20:41:11.775Z,98491.00
2022-08-22T20:44:25.683Z,98495.00
2022-08-22T20:47:24.199Z,98505.00
2022-08-22T20:50:12.344Z,98498.00
2022-08-22T20:53:18.913Z,98496.00
2022-08-22T20:56:08.198Z,98481.00
2022-08-22T20:59:00.529Z,98479.00
2022-08-22T21:01:56.378Z,98483.00
2022-08-22T21:05:14.098Z,98479.00
2022-08-22T21:08:20.983Z,98477.00
2022-08-22T21:11:28.207Z,98482.00
2022-08-22T21:14:22.913Z,98474.00
2022-08-22T21:17:23.427Z,98474.00
2022-08-22T21:20:22.048Z,98479.00
2022-08-22T21:23:15.953Z,98477.00
2022-08-22T21:26:12.943Z,98474.00
2022-08-22T21:29:18.605Z,98478.00
2022-08-22T21:32:31.772Z,98473.00
2022-08-22T21:35:27.117Z,98476.00
2022-08-22T21:38:18.157Z,98463.00
2022-08-22T21:41:06.182Z,98466.00
2022-08-22T21:43:54.241Z,98463.00
2022-08-22T21:46:42.033Z,98456.00
2022-08-22T21:49:30.237Z,98458.00
2022-08-22T21:52:28.087Z,98461.00
2022-08-22T21:55:39.367Z,98462.00
2022-08-22T21:58:35.531Z,98468.00
2022-08-22T22:01:32.880Z,98466.00
2022-08-22T22:04:20.480Z,98474.00
2022-08-22T22:07:08.007Z,98469.00
2022-08-22T22:09:55.517Z,98477.00
2022-08-22T22:12:46.188Z,98468.00
2022-08-22T22:15:44.280Z,98459.00
2022-08-22T22:18:34.714Z,98462.00
2022-08-22T22:21:22.927Z,98459.00
2022-08-22T22:24:10.680Z,98456.00
2022-08-22T22:26:59.433Z,98461.00
2022-08-22T22:29:49.812Z,98455.00
2022-08-22T22:32:37.532Z,98454.00
2022-08-22T22:35:25.351Z,98452.00
2022-08-22T22:38:19.515Z,98453.00
2022-08-22T22:41:11.274Z,98458.00
2022-08-22T22:43:58.792Z,98457.00
2022-08-22T22:46:46.312Z,98451.00
2022-08-22T22:49:34.178Z,98451.00
2022-08-22T22:52:24.096Z,98446.00
2022-08-22T22:55:12.417Z,98449.00
2022-08-22T22:58:13.869Z,98448.00
2022-08-22T23:01:25.101Z,98447.00
2022-08-22T23:04:13.032Z,98444.00
2022-08-22T23:07:00.943Z,98446.00
2022-08-22T23:09:48.597Z,98445.00
2022-08-22T23:12:38.596Z,98452.00
2022-08-22T23:15:26.787Z,98456.00
2022-08-22T23:18:14.692Z,98455.00
2022-08-22T23:21:23.653Z,98451.00
2022-08-22T23:24:13.071Z,98457.00
2022-08-22T23:27:01.716Z,98456.00
2022-08-22T23:29:49.256Z,98450.00
2022-08-22T23:32:37.933Z,98448.00
2022-08-22T23:35:25.535Z,98451.00
2022-08-22T23:38:13.332Z,98454.00
2022-08-22T23:41:10.073Z,98454.00
2022-08-22T23:43:58.255Z,98449.00
2022-08-22T23:46:46.338Z,98457.00
2022-08-22T23:49:35.742Z,98444.00
2022-08-22T23:52:23.352Z,98449.00
2022-08-22T23:55:11.097Z,98440.00
2022-08-22T23:57:59.040Z,98448.00
